Aviation Digital Data Service (ADDS)

Output produced by TAFs form (2047 UTC 24 June 2018)
found at http://www.aviationweather.gov/adds/tafs/
 
KTYS 242042Z 21010KT 10SM VCTS SCT033CB SCT090 SCT150 BKN250 29/21 A2998 RMK AO2 LTG DSNT W-NE FRQ LTGICCC VC NW-N TS VC NW-N MOV SE T02890211 $
KTYS 241732Z 2418/2518 25010G17KT P6SM VCTS SCT035CB BKN250 
     TEMPO 2419/2421 TSRA BKN035CB 
     FM250100 21004KT P6SM SCT025 BKN250 
     FM250800 VRB04KT P6SM VCTS SCT025CB BKN150 
     FM251500 22009KT P6SM VCTS BKN035CB OVC120